Time;durP1;ratioP1;P1;durP2;ratioP2;P2;SDS_P1;SDS_P2;PMS_P1;PMS_P2;Temp;Humidity;BMP_temperature;BMP_pressure;BME280_temperature;BME280_humidity;BME280_pressure;Samples;Min_cycle;Max_cycle;Signal;HPM_P1;HPM_P2
2022/12/09 00:02:10;;;;;;;;;;;-0.60;99.90;;;;;;5030680;28;19919;-59
2022/12/09 00:04:35;;;;;;;;;;;-0.60;99.90;;;;;;5030020;28;19967;-59
2022/12/09 00:07:01;;;;;;;;;;;-0.60;99.90;;;;;;5021698;28;19913;-58
2022/12/09 00:09:26;;;;;;;;;;;-0.60;99.90;;;;;;5030265;28;19955;-57
2022/12/09 00:11:52;;;;;;;;;;;-0.60;99.90;;;;;;5023560;28;20374;-58
2022/12/09 00:14:17;;;;;;;;;;;-0.60;99.90;;;;;;5029623;28;20363;-59
2022/12/09 00:16:43;;;;;;;;;;;-0.60;99.90;;;;;;5026549;28;19967;-60
2022/12/09 00:19:08;;;;;;;;;;;-0.60;99.90;;;;;;5030004;28;20020;-59
2022/12/09 00:21:34;;;;;;;;;;;-0.60;99.90;;;;;;5024093;28;19967;-58
2022/12/09 00:24:01;;;;;;;;;;;-0.60;99.90;;;;;;5027245;28;20224;-60
2022/12/09 00:26:27;;;;;;;;;;;-0.60;99.90;;;;;;5024166;28;19924;-59
2022/12/09 00:28:52;;;;;;;;;;;-0.50;99.90;;;;;;5028769;28;19914;-58
2022/12/09 00:31:20;;;;;;;;;;;-0.60;99.90;;;;;;5023000;28;19939;-59
2022/12/09 00:33:46;;;;;;;;;;;-0.60;99.90;;;;;;5028238;28;19945;-59
2022/12/09 00:36:13;;;;;;;;;;;-0.70;99.90;;;;;;5029084;28;19991;-58
2022/12/09 00:38:39;;;;;;;;;;;-0.70;99.90;;;;;;5023203;28;19956;-60
2022/12/09 00:41:05;;;;;;;;;;;-0.70;99.90;;;;;;5028110;28;19956;-59
2022/12/09 00:43:30;;;;;;;;;;;-0.70;99.90;;;;;;5029192;28;20344;-59
2022/12/09 00:45:56;;;;;;;;;;;-0.70;99.90;;;;;;5017761;28;20463;-59
2022/12/09 00:48:21;;;;;;;;;;;-0.70;99.90;;;;;;5029998;28;19915;-59
2022/12/09 00:50:47;;;;;;;;;;;-0.60;99.90;;;;;;5022827;28;20402;-59
2022/12/09 00:53:12;;;;;;;;;;;-0.70;99.90;;;;;;5027617;28;19920;-59
2022/12/09 00:55:38;;;;;;;;;;;-0.70;99.90;;;;;;5027966;28;19917;-58
2022/12/09 00:58:04;;;;;;;;;;;-0.70;99.90;;;;;;5029011;28;19940;-59
2022/12/09 01:00:29;;;;;;;;;;;-0.70;99.90;;;;;;5029121;28;20449;-57
2022/12/09 01:02:55;;;;;;;;;;;-0.70;99.90;;;;;;5029020;28;19913;-59
2022/12/09 01:05:20;;;;;;;;;;;-0.70;99.90;;;;;;5028008;28;20008;-58
2022/12/09 01:07:45;;;;;;;;;;;-0.70;99.90;;;;;;5028762;28;19916;-59
2022/12/09 01:10:11;;;;;;;;;;;-0.70;99.90;;;;;;5029474;28;20283;-59
2022/12/09 01:12:37;;;;;;;;;;;-0.70;99.90;;;;;;5024476;28;20115;-59
2022/12/09 01:15:03;;;;;;;;;;;-0.70;99.90;;;;;;5026638;28;19924;-57
2022/12/09 01:17:29;;;;;;;;;;;-0.70;99.90;;;;;;5026107;28;19913;-59
2022/12/09 01:20:02;;;;;;;;;;;-0.70;99.90;;;;;;5026880;28;19920;-59
2022/12/09 01:22:27;;;;;;;;;;;-0.70;99.90;;;;;;5018358;28;19913;-59
2022/12/09 01:24:53;;;;;;;;;;;-0.70;99.90;;;;;;5022608;28;19917;-58
2022/12/09 01:27:18;;;;;;;;;;;-0.70;99.90;;;;;;5017857;28;19918;-60
2022/12/09 01:29:44;;;;;;;;;;;-0.70;99.90;;;;;;5028390;28;19955;-60
2022/12/09 01:32:10;;;;;;;;;;;-0.70;99.90;;;;;;5044482;28;19940;-59
2022/12/09 01:34:35;;;;;;;;;;;-0.70;99.90;;;;;;5028061;28;19925;-58
2022/12/09 01:37:00;;;;;;;;;;;-0.70;99.90;;;;;;5028934;28;19913;-59
2022/12/09 01:39:26;;;;;;;;;;;-0.70;99.90;;;;;;5023816;28;19921;-60
2022/12/09 01:41:51;;;;;;;;;;;-0.70;99.90;;;;;;5025843;28;20371;-58
2022/12/09 01:44:17;;;;;;;;;;;-0.70;99.90;;;;;;5028708;28;19917;-59
2022/12/09 01:46:43;;;;;;;;;;;-0.70;99.90;;;;;;5027617;28;19955;-60
2022/12/09 01:49:10;;;;;;;;;;;-0.70;99.90;;;;;;5028878;28;19952;-60
2022/12/09 01:51:35;;;;;;;;;;;-0.70;99.90;;;;;;5028182;28;19920;-58
2022/12/09 01:54:01;;;;;;;;;;;-0.70;99.90;;;;;;5020256;28;20008;-60
2022/12/09 01:56:28;;;;;;;;;;;-0.60;99.90;;;;;;5029592;28;19964;-59
2022/12/09 01:58:56;;;;;;;;;;;-0.60;99.90;;;;;;5020779;28;19949;-60
2022/12/09 02:01:22;;;;;;;;;;;-0.60;99.90;;;;;;5024291;28;20456;-60
2022/12/09 02:03:47;;;;;;;;;;;-0.60;99.90;;;;;;5030149;28;19921;-60
2022/12/09 02:06:14;;;;;;;;;;;-0.60;99.90;;;;;;5032306;28;19913;-58
2022/12/09 02:08:40;;;;;;;;;;;-0.60;99.90;;;;;;5031966;28;20357;-59
2022/12/09 02:11:24;;;;;;;;;;;-0.60;99.90;;;;;;5028520;28;19914;-60
2022/12/09 02:13:56;;;;;;;;;;;-0.60;99.90;;;;;;5031271;28;19960;-59
2022/12/09 02:16:23;;;;;;;;;;;-0.60;99.90;;;;;;5026393;28;19913;-56
2022/12/09 02:18:56;;;;;;;;;;;-0.60;99.90;;;;;;5030132;28;20299;-59
2022/12/09 02:21:26;;;;;;;;;;;-0.60;99.90;;;;;;5026533;28;19913;-58
2022/12/09 02:23:54;;;;;;;;;;;-0.60;99.90;;;;;;5029209;28;19913;-61
2022/12/09 02:26:22;;;;;;;;;;;-0.60;99.90;;;;;;5031377;28;20290;-59
2022/12/09 02:29:00;;;;;;;;;;;-0.60;99.90;;;;;;5028808;28;19913;-59
2022/12/09 02:31:25;;;;;;;;;;;-0.60;99.90;;;;;;5032243;28;19913;-59
2022/12/09 02:33:50;;;;;;;;;;;-0.50;99.90;;;;;;5039532;28;19913;-61
2022/12/09 02:36:17;;;;;;;;;;;-0.50;99.90;;;;;;5039003;22;20299;-66
2022/12/09 02:38:43;;;;;;;;;;;-0.50;99.90;;;;;;5006799;28;20356;-65
2022/12/09 02:41:14;;;;;;;;;;;-0.50;99.90;;;;;;5007380;28;19933;-65
2022/12/09 02:43:42;;;;;;;;;;;-0.50;99.90;;;;;;5010559;28;19925;-64
2022/12/09 02:46:12;;;;;;;;;;;-0.50;99.90;;;;;;4998727;28;20466;-66
2022/12/09 02:48:39;;;;;;;;;;;-0.50;99.90;;;;;;5012165;28;19921;-64
2022/12/09 02:51:06;;;;;;;;;;;-0.50;99.90;;;;;;5007664;28;19932;-64
2022/12/09 02:53:33;;;;;;;;;;;-0.50;99.90;;;;;;5008418;28;19914;-64
2022/12/09 02:55:58;;;;;;;;;;;-0.50;99.90;;;;;;5007048;28;20292;-66
2022/12/09 02:58:24;;;;;;;;;;;-0.50;99.90;;;;;;5012318;28;19921;-65
2022/12/09 03:00:50;;;;;;;;;;;-0.40;99.90;;;;;;5005403;28;19910;-66
2022/12/09 03:03:17;;;;;;;;;;;-0.40;99.90;;;;;;5006396;28;20367;-66
2022/12/09 03:05:48;;;;;;;;;;;-0.40;99.90;;;;;;5003453;28;19909;-66
2022/12/09 03:08:33;;;;;;;;;;;-0.40;99.90;;;;;;5011857;28;19915;-66
2022/12/09 03:10:59;;;;;;;;;;;-0.40;99.90;;;;;;5002737;28;20396;-64
2022/12/09 03:13:41;;;;;;;;;;;-0.40;99.90;;;;;;5010998;28;20570;-66
2022/12/09 03:16:13;;;;;;;;;;;-0.40;99.90;;;;;;5002036;28;19910;-64
2022/12/09 03:18:42;;;;;;;;;;;-0.40;99.90;;;;;;5009679;28;19913;-65
2022/12/09 03:21:09;;;;;;;;;;;-0.30;99.90;;;;;;5011778;28;19917;-66
2022/12/09 03:23:35;;;;;;;;;;;-0.30;99.90;;;;;;5009113;28;19913;-64
2022/12/09 03:26:01;;;;;;;;;;;-0.30;99.90;;;;;;5011197;28;19945;-66
2022/12/09 03:28:26;;;;;;;;;;;-0.30;99.90;;;;;;5007580;28;19960;-64
2022/12/09 03:30:53;;;;;;;;;;;-0.30;99.90;;;;;;5010660;28;20017;-65
2022/12/09 03:33:20;;;;;;;;;;;-0.30;99.90;;;;;;5007159;28;19921;-64
2022/12/09 03:35:51;;;;;;;;;;;-0.30;99.90;;;;;;5009708;28;19917;-66
2022/12/09 03:38:18;;;;;;;;;;;-0.30;99.90;;;;;;5006087;28;20472;-65
2022/12/09 03:40:45;;;;;;;;;;;-0.30;99.90;;;;;;5011398;28;19917;-65
2022/12/09 03:43:13;;;;;;;;;;;-0.30;99.90;;;;;;5026534;28;20250;-64
2022/12/09 03:45:38;;;;;;;;;;;-0.40;99.90;;;;;;5010360;28;19914;-66
2022/12/09 03:48:04;;;;;;;;;;;-0.30;99.90;;;;;;5011713;28;19932;-67
2022/12/09 03:50:33;;;;;;;;;;;-0.40;99.90;;;;;;5011297;28;20107;-64
2022/12/09 03:53:18;;;;;;;;;;;-0.30;99.90;;;;;;5005403;28;20355;-65
2022/12/09 03:55:50;;;;;;;;;;;-0.40;99.90;;;;;;5000907;28;20434;-64
2022/12/09 03:58:16;;;;;;;;;;;-0.40;99.90;;;;;;4993873;28;19949;-63
2022/12/09 04:00:42;;;;;;;;;;;-0.40;99.90;;;;;;5001331;28;19989;-64
2022/12/09 04:03:07;;;;;;;;;;;-0.30;99.90;;;;;;5009821;28;19918;-65
2022/12/09 04:05:33;;;;;;;;;;;-0.40;99.90;;;;;;5007058;28;19913;-64
2022/12/09 04:07:59;;;;;;;;;;;-0.30;99.90;;;;;;5007078;28;19910;-65
2022/12/09 04:10:24;;;;;;;;;;;-0.40;99.90;;;;;;5009881;28;19920;-65
2022/12/09 04:12:49;;;;;;;;;;;-0.40;99.90;;;;;;5002220;28;19918;-63
2022/12/09 04:15:15;;;;;;;;;;;-0.30;99.90;;;;;;5005232;28;20391;-64
2022/12/09 04:17:40;;;;;;;;;;;-0.30;99.90;;;;;;5006078;28;19913;-64
2022/12/09 04:20:06;;;;;;;;;;;-0.30;99.90;;;;;;5005642;28;20581;-64
2022/12/09 04:22:32;;;;;;;;;;;-0.40;99.90;;;;;;5008692;28;19914;-64
2022/12/09 04:24:57;;;;;;;;;;;-0.40;99.90;;;;;;5008848;28;20024;-66
2022/12/09 04:27:23;;;;;;;;;;;-0.40;99.90;;;;;;5010701;28;19913;-64
2022/12/09 04:29:48;;;;;;;;;;;-0.50;99.90;;;;;;5002876;28;19957;-64
2022/12/09 04:32:13;;;;;;;;;;;-0.50;99.90;;;;;;5006179;28;19920;-65
2022/12/09 04:34:39;;;;;;;;;;;-0.40;99.90;;;;;;5009275;28;20051;-65
2022/12/09 04:37:05;;;;;;;;;;;-0.40;99.90;;;;;;5008614;28;19925;-65
2022/12/09 04:39:30;;;;;;;;;;;-0.40;99.90;;;;;;5010031;28;19968;-64
2022/12/09 04:41:55;;;;;;;;;;;-0.40;99.90;;;;;;5008617;28;19913;-65
2022/12/09 04:44:21;;;;;;;;;;;-0.40;99.90;;;;;;5009349;28;19917;-65
2022/12/09 04:46:46;;;;;;;;;;;-0.40;99.90;;;;;;5007018;28;19914;-65
2022/12/09 04:49:12;;;;;;;;;;;-0.40;99.90;;;;;;5005761;28;19960;-65
2022/12/09 04:51:37;;;;;;;;;;;-0.40;99.90;;;;;;5006597;28;19917;-64
2022/12/09 04:54:03;;;;;;;;;;;-0.40;99.90;;;;;;5010125;28;20524;-67
2022/12/09 04:56:28;;;;;;;;;;;-0.40;99.90;;;;;;5007209;28;19913;-64
2022/12/09 04:58:54;;;;;;;;;;;-0.40;99.90;;;;;;5001711;28;19941;-66
2022/12/09 05:01:20;;;;;;;;;;;-0.40;99.90;;;;;;5018216;28;19960;-64
2022/12/09 05:03:47;;;;;;;;;;;-0.40;99.90;;;;;;5001311;28;20364;-65
2022/12/09 05:06:13;;;;;;;;;;;-0.40;99.90;;;;;;5004398;28;20137;-67
2022/12/09 05:08:39;;;;;;;;;;;-0.40;99.90;;;;;;5001953;28;20272;-66
2022/12/09 05:11:04;;;;;;;;;;;-0.40;99.90;;;;;;5009632;28;19910;-65
2022/12/09 05:13:30;;;;;;;;;;;-0.40;99.90;;;;;;5005012;28;19917;-64
2022/12/09 05:16:03;;;;;;;;;;;-0.40;99.90;;;;;;5007095;28;19963;-65
2022/12/09 05:18:29;;;;;;;;;;;-0.50;99.90;;;;;;5004820;28;19939;-67
2022/12/09 05:20:54;;;;;;;;;;;-0.50;99.90;;;;;;5002080;28;19952;-65
2022/12/09 05:23:20;;;;;;;;;;;-0.60;99.90;;;;;;5004435;28;19913;-65
2022/12/09 05:25:45;;;;;;;;;;;-0.60;99.90;;;;;;5006668;28;19910;-63
2022/12/09 05:28:11;;;;;;;;;;;-0.70;99.90;;;;;;5009382;28;19918;-66
2022/12/09 05:30:37;;;;;;;;;;;-0.70;99.90;;;;;;5006310;28;19913;-65
2022/12/09 05:33:02;;;;;;;;;;;-0.70;99.90;;;;;;5012561;28;19910;-65
2022/12/09 05:35:28;;;;;;;;;;;-0.70;99.90;;;;;;5008876;28;19921;-66
2022/12/09 05:37:53;;;;;;;;;;;-0.70;99.90;;;;;;5013737;28;19918;-65
2022/12/09 05:40:19;;;;;;;;;;;-0.70;99.90;;;;;;5013785;28;19968;-63
2022/12/09 05:42:44;;;;;;;;;;;-0.70;99.90;;;;;;5013641;28;20372;-65
2022/12/09 05:45:10;;;;;;;;;;;-0.70;99.90;;;;;;5012543;28;19917;-65
2022/12/09 05:47:36;;;;;;;;;;;-0.80;99.90;;;;;;5013018;28;19920;-67
2022/12/09 05:50:02;;;;;;;;;;;-0.70;99.90;;;;;;5012566;28;19913;-64
2022/12/09 05:52:28;;;;;;;;;;;-0.70;99.90;;;;;;5012796;28;19927;-65
2022/12/09 05:54:53;;;;;;;;;;;-0.70;99.90;;;;;;5005786;28;20389;-64
2022/12/09 05:57:19;;;;;;;;;;;-0.70;99.90;;;;;;5006729;28;20360;-65
2022/12/09 05:59:44;;;;;;;;;;;-0.70;99.90;;;;;;5010174;28;20158;-65
2022/12/09 06:02:10;;;;;;;;;;;-0.60;99.90;;;;;;5012610;28;20369;-65
2022/12/09 06:04:35;;;;;;;;;;;-0.60;99.90;;;;;;5001639;28;19960;-65
2022/12/09 06:07:00;;;;;;;;;;;-0.60;99.90;;;;;;5013184;28;19913;-64
2022/12/09 06:09:26;;;;;;;;;;;-0.60;99.90;;;;;;5009741;28;19925;-64
2022/12/09 06:11:51;;;;;;;;;;;-0.50;99.90;;;;;;5013117;28;19959;-64
2022/12/09 06:14:17;;;;;;;;;;;-0.60;99.90;;;;;;5004302;28;20036;-65
2022/12/09 06:16:42;;;;;;;;;;;-0.60;99.90;;;;;;5009167;28;20437;-67
2022/12/09 06:19:09;;;;;;;;;;;-0.50;99.90;;;;;;5007173;28;19968;-65
2022/12/09 06:21:37;;;;;;;;;;;-0.50;99.90;;;;;;5005556;28;19913;-65
2022/12/09 06:24:03;;;;;;;;;;;-0.50;99.90;;;;;;5012572;28;19959;-67
2022/12/09 06:26:29;;;;;;;;;;;-0.50;99.90;;;;;;5009919;28;19995;-65
2022/12/09 06:28:55;;;;;;;;;;;-0.50;99.90;;;;;;5012444;28;19957;-65
2022/12/09 06:31:21;;;;;;;;;;;-0.40;99.90;;;;;;5012425;28;19913;-64
2022/12/09 06:33:47;;;;;;;;;;;-0.40;99.90;;;;;;5011468;28;19921;-64
2022/12/09 06:36:12;;;;;;;;;;;-0.40;99.90;;;;;;5007533;28;20004;-64
2022/12/09 06:38:38;;;;;;;;;;;-0.40;99.90;;;;;;5002494;28;20009;-64
2022/12/09 06:41:07;;;;;;;;;;;-0.40;99.90;;;;;;5011331;28;19913;-65
2022/12/09 06:43:33;;;;;;;;;;;-0.40;99.90;;;;;;5006989;28;19972;-65
2022/12/09 06:45:58;;;;;;;;;;;-0.30;99.90;;;;;;5010727;28;19921;-66
2022/12/09 06:48:23;;;;;;;;;;;-0.30;99.90;;;;;;5007382;28;19920;-66
2022/12/09 06:50:49;;;;;;;;;;;-0.30;99.90;;;;;;5010985;28;19920;-65
2022/12/09 06:53:15;;;;;;;;;;;-0.30;99.90;;;;;;5012195;28;19917;-65
2022/12/09 06:55:40;;;;;;;;;;;-0.30;99.90;;;;;;5010402;28;20426;-64
2022/12/09 06:58:06;;;;;;;;;;;-0.30;99.90;;;;;;5022210;28;20012;-67
2022/12/09 07:00:32;;;;;;;;;;;-0.30;99.90;;;;;;5010254;28;19913;-66
2022/12/09 07:02:57;;;;;;;;;;;-0.30;99.90;;;;;;4997011;28;19936;-64
2022/12/09 07:05:23;;;;;;;;;;;-0.30;99.90;;;;;;5006095;28;19925;-65
2022/12/09 07:07:50;;;;;;;;;;;-0.30;99.90;;;;;;5008932;28;19914;-65
2022/12/09 07:10:15;;;;;;;;;;;-0.30;99.90;;;;;;5000578;28;19913;-65
2022/12/09 07:12:41;;;;;;;;;;;-0.30;99.90;;;;;;5009056;28;19917;-65
2022/12/09 07:15:07;;;;;;;;;;;-0.30;99.90;;;;;;5001558;28;19952;-65
2022/12/09 07:17:32;;;;;;;;;;;-0.20;99.90;;;;;;5010319;28;19917;-64
2022/12/09 07:19:57;;;;;;;;;;;-0.30;99.90;;;;;;5007801;28;20364;-63
2022/12/09 07:22:23;;;;;;;;;;;-0.20;99.90;;;;;;5009781;28;20258;-66
2022/12/09 07:24:48;;;;;;;;;;;-0.20;99.90;;;;;;5008845;28;19917;-67
2022/12/09 07:27:14;;;;;;;;;;;-0.20;99.90;;;;;;5011471;28;19913;-65
2022/12/09 07:29:39;;;;;;;;;;;-0.20;99.90;;;;;;5010289;28;20072;-65
2022/12/09 07:32:06;;;;;;;;;;;-0.20;99.90;;;;;;5008548;28;19920;-65
2022/12/09 07:34:32;;;;;;;;;;;-0.20;99.90;;;;;;5011408;28;19956;-64
2022/12/09 07:36:58;;;;;;;;;;;-0.10;99.90;;;;;;5007414;28;20336;-65
2022/12/09 07:39:23;;;;;;;;;;;-0.10;99.90;;;;;;5011570;28;19909;-65
2022/12/09 07:41:52;;;;;;;;;;;-0.10;99.90;;;;;;5000628;28;20429;-65
2022/12/09 07:44:18;;;;;;;;;;;-0.20;99.90;;;;;;5005549;28;20355;-65
2022/12/09 07:46:43;;;;;;;;;;;-0.10;99.90;;;;;;4997333;28;19968;-66
2022/12/09 07:49:09;;;;;;;;;;;-0.20;99.90;;;;;;5010089;28;20012;-64
2022/12/09 07:51:35;;;;;;;;;;;-0.10;99.90;;;;;;5002090;28;19910;-65
2022/12/09 07:54:00;;;;;;;;;;;-0.10;99.90;;;;;;5004292;28;19920;-66
2022/12/09 07:56:27;;;;;;;;;;;-0.10;99.90;;;;;;5011327;28;20387;-65
2022/12/09 07:58:53;;;;;;;;;;;-0.10;99.90;;;;;;5002570;28;19968;-64
2022/12/09 08:01:20;;;;;;;;;;;-0.10;99.90;;;;;;5010768;28;19914;-65
2022/12/09 08:03:46;;;;;;;;;;;-0.10;99.90;;;;;;5004998;28;20234;-66
2022/12/09 08:06:13;;;;;;;;;;;-0.10;99.90;;;;;;5005538;28;19910;-64
2022/12/09 08:08:38;;;;;;;;;;;-0.10;99.90;;;;;;5007696;28;19917;-67
2022/12/09 08:11:07;;;;;;;;;;;-0.10;99.90;;;;;;5010731;28;19909;-64
2022/12/09 08:13:33;;;;;;;;;;;-0.10;99.90;;;;;;5007268;28;19956;-66
2022/12/09 08:16:02;;;;;;;;;;;-0.20;99.90;;;;;;5009308;28;20000;-67
2022/12/09 08:18:28;;;;;;;;;;;-0.20;99.90;;;;;;5006331;28;19963;-65
2022/12/09 08:20:53;;;;;;;;;;;-0.20;99.90;;;;;;5017877;28;20324;-64
2022/12/09 08:23:18;;;;;;;;;;;-0.20;99.90;;;;;;5003958;28;20368;-65
2022/12/09 08:25:44;;;;;;;;;;;-0.20;99.90;;;;;;5007646;28;19917;-64
2022/12/09 08:28:09;;;;;;;;;;;-0.30;99.90;;;;;;5004067;28;20001;-65
2022/12/09 08:30:35;;;;;;;;;;;-0.30;99.90;;;;;;5005863;28;19960;-66
2022/12/09 08:33:01;;;;;;;;;;;-0.30;99.90;;;;;;5009563;28;19910;-65
2022/12/09 08:35:28;;;;;;;;;;;-0.30;99.90;;;;;;5009096;28;20300;-64
2022/12/09 08:37:54;;;;;;;;;;;-0.30;99.90;;;;;;5010677;28;20080;-64
2022/12/09 08:40:19;;;;;;;;;;;-0.30;99.90;;;;;;5009533;28;20005;-65
2022/12/09 08:42:45;;;;;;;;;;;-0.30;99.90;;;;;;5010257;28;19967;-65
2022/12/09 08:45:10;;;;;;;;;;;-0.30;99.90;;;;;;5008626;28;19922;-64
2022/12/09 08:47:35;;;;;;;;;;;-0.30;99.90;;;;;;5006366;28;19913;-65
2022/12/09 08:50:01;;;;;;;;;;;-0.30;99.90;;;;;;5005577;28;19914;-66
2022/12/09 08:52:29;;;;;;;;;;;-0.30;99.90;;;;;;5006487;28;19917;-64
2022/12/09 08:54:55;;;;;;;;;;;-0.30;99.90;;;;;;5002205;28;19913;-64
2022/12/09 08:57:22;;;;;;;;;;;-0.30;99.90;;;;;;5004899;28;20335;-65
2022/12/09 08:59:47;;;;;;;;;;;-0.30;99.90;;;;;;5024955;28;19913;-66
2022/12/09 09:02:13;;;;;;;;;;;-0.30;99.90;;;;;;5009633;28;20272;-65
2022/12/09 09:04:38;;;;;;;;;;;-0.20;99.90;;;;;;5003404;28;19925;-65
2022/12/09 09:07:04;;;;;;;;;;;-0.20;99.90;;;;;;5003645;28;20325;-65
2022/12/09 09:09:29;;;;;;;;;;;-0.20;99.90;;;;;;5005551;28;20362;-65
2022/12/09 09:11:55;;;;;;;;;;;-0.20;99.90;;;;;;5010096;28;19964;-66
2022/12/09 09:14:20;;;;;;;;;;;-0.10;99.90;;;;;;5005622;28;20057;-66
2022/12/09 09:16:46;;;;;;;;;;;-0.10;99.90;;;;;;5008528;28;20303;-65
2022/12/09 09:19:13;;;;;;;;;;;-0.10;99.90;;;;;;5005455;28;19917;-66
2022/12/09 09:21:39;;;;;;;;;;;-0.10;99.90;;;;;;5009542;28;19924;-65
2022/12/09 09:24:07;;;;;;;;;;;0.00;99.90;;;;;;5004509;28;19913;-66
2022/12/09 09:26:32;;;;;;;;;;;0.00;99.90;;;;;;5006320;28;19914;-67
2022/12/09 09:28:57;;;;;;;;;;;0.00;99.90;;;;;;5009931;28;19943;-65
2022/12/09 09:31:23;;;;;;;;;;;0.00;99.90;;;;;;5006423;28;19964;-66
2022/12/09 09:33:48;;;;;;;;;;;0.00;99.90;;;;;;5000573;28;20375;-66
2022/12/09 09:36:19;;;;;;;;;;;0.10;99.90;;;;;;5007608;28;20012;-66
2022/12/09 09:38:48;;;;;;;;;;;0.20;99.90;;;;;;5008301;28;20326;-66
2022/12/09 09:41:17;;;;;;;;;;;0.20;99.90;;;;;;5002497;28;20392;-66
2022/12/09 09:43:43;;;;;;;;;;;0.30;99.90;;;;;;5007606;28;19968;-65
2022/12/09 09:46:11;;;;;;;;;;;0.30;99.90;;;;;;5009324;28;20394;-66
2022/12/09 09:48:36;;;;;;;;;;;0.40;99.90;;;;;;5008617;28;19999;-65
2022/12/09 09:51:08;;;;;;;;;;;0.40;99.90;;;;;;5009083;28;19976;-64
2022/12/09 09:53:34;;;;;;;;;;;0.40;99.90;;;;;;5004202;28;19910;-66
2022/12/09 09:56:01;;;;;;;;;;;0.50;99.90;;;;;;5006147;28;19935;-65
2022/12/09 09:58:35;;;;;;;;;;;0.50;99.90;;;;;;5002944;28;19980;-66
2022/12/09 10:01:04;;;;;;;;;;;0.60;99.90;;;;;;5007301;28;19952;-65
2022/12/09 10:03:29;;;;;;;;;;;0.60;99.90;;;;;;5003433;28;20005;-67
2022/12/09 10:05:57;;;;;;;;;;;0.70;99.90;;;;;;5012347;28;20004;-65
2022/12/09 10:08:37;;;;;;;;;;;0.70;99.90;;;;;;5008139;28;19913;-66
2022/12/09 10:11:02;;;;;;;;;;;0.70;99.90;;;;;;5003531;28;19910;-65
2022/12/09 10:13:28;;;;;;;;;;;0.70;99.90;;;;;;5006423;28;19968;-65
2022/12/09 10:16:11;;;;;;;;;;;0.70;99.90;;;;;;4999927;28;19910;-64
2022/12/09 10:18:48;;;;;;;;;;;0.80;99.90;;;;;;5006275;28;19924;-65
2022/12/09 10:21:18;;;;;;;;;;;0.80;99.90;;;;;;5010864;28;19920;-65
2022/12/09 10:23:44;;;;;;;;;;;0.80;99.90;;;;;;5008667;28;20017;-65
2022/12/09 10:26:15;;;;;;;;;;;0.80;99.90;;;;;;5003873;28;19920;-65
2022/12/09 10:28:43;;;;;;;;;;;0.80;99.90;;;;;;5011316;28;19948;-65
2022/12/09 10:31:09;;;;;;;;;;;0.90;99.90;;;;;;5004520;28;19937;-65
2022/12/09 10:33:35;;;;;;;;;;;0.90;99.90;;;;;;5010348;28;19916;-66
2022/12/09 10:36:01;;;;;;;;;;;0.90;99.90;;;;;;5004978;28;19917;-64
2022/12/09 10:38:28;;;;;;;;;;;0.90;99.90;;;;;;5009377;28;20028;-65
2022/12/09 10:41:06;;;;;;;;;;;1.00;99.90;;;;;;5019678;28;20269;-64
2022/12/09 10:43:33;;;;;;;;;;;1.00;99.90;;;;;;5007674;28;19910;-65
2022/12/09 10:45:59;;;;;;;;;;;1.00;99.90;;;;;;4996648;28;19940;-66
2022/12/09 10:48:32;;;;;;;;;;;1.00;99.90;;;;;;5008739;28;19916;-63
2022/12/09 10:51:01;;;;;;;;;;;1.00;99.90;;;;;;5011692;28;19956;-64
2022/12/09 10:53:27;;;;;;;;;;;1.00;99.90;;;;;;5006365;28;19916;-66
2022/12/09 10:55:54;;;;;;;;;;;1.00;99.90;;;;;;5009906;28;19984;-65
2022/12/09 10:58:23;;;;;;;;;;;1.10;99.90;;;;;;5006202;28;20268;-66
2022/12/09 11:00:58;;;;;;;;;;;1.10;99.90;;;;;;5024010;28;20174;-65
2022/12/09 11:03:25;;;;;;;;;;;1.10;99.90;;;;;;5005880;28;19955;-66
2022/12/09 11:05:55;;;;;;;;;;;1.10;99.90;;;;;;5008298;28;20431;-65
2022/12/09 11:08:21;;;;;;;;;;;1.10;99.90;;;;;;5007373;28;19909;-66
2022/12/09 11:10:47;;;;;;;;;;;1.10;99.90;;;;;;5011828;28;19920;-64
2022/12/09 11:13:15;;;;;;;;;;;1.10;99.90;;;;;;5008051;28;19964;-64
2022/12/09 11:15:44;;;;;;;;;;;1.10;99.90;;;;;;5010142;28;20454;-65
2022/12/09 11:18:17;;;;;;;;;;;1.10;99.90;;;;;;5010122;28;20375;-65
2022/12/09 11:20:53;;;;;;;;;;;1.10;99.90;;;;;;5009922;28;19910;-65
2022/12/09 11:23:19;;;;;;;;;;;1.10;99.90;;;;;;5009489;28;19914;-66
2022/12/09 11:26:04;;;;;;;;;;;1.10;99.90;;;;;;5008012;28;19917;-65
2022/12/09 11:28:31;;;;;;;;;;;1.10;99.90;;;;;;5010087;28;20528;-65
2022/12/09 11:31:04;;;;;;;;;;;1.10;99.90;;;;;;5009975;28;20008;-65
2022/12/09 11:33:31;;;;;;;;;;;1.10;99.90;;;;;;5009906;28;19961;-65
2022/12/09 11:36:01;;;;;;;;;;;1.10;99.90;;;;;;5006472;28;19940;-65
2022/12/09 11:38:29;;;;;;;;;;;1.10;99.90;;;;;;5011198;28;19914;-66
2022/12/09 11:41:03;;;;;;;;;;;1.10;99.90;;;;;;5003660;28;20474;-65
2022/12/09 11:43:35;;;;;;;;;;;1.10;99.90;;;;;;5010992;28;19917;-65
2022/12/09 11:46:06;;;;;;;;;;;1.10;99.90;;;;;;5004021;28;19916;-66
2022/12/09 11:48:33;;;;;;;;;;;1.10;99.90;;;;;;5008826;28;19936;-65
2022/12/09 11:51:00;;;;;;;;;;;1.10;99.90;;;;;;5010716;28;19971;-64
2022/12/09 11:53:25;;;;;;;;;;;1.10;99.90;;;;;;5010079;28;19920;-65
2022/12/09 11:56:05;;;;;;;;;;;1.10;99.90;;;;;;5003462;28;20379;-65
2022/12/09 11:58:38;;;;;;;;;;;1.10;99.90;;;;;;5010221;28;19913;-65
2022/12/09 12:01:22;;;;;;;;;;;1.10;99.90;;;;;;5009015;28;19956;-65
2022/12/09 12:03:51;;;;;;;;;;;1.10;99.90;;;;;;5004735;28;19921;-66
2022/12/09 12:06:21;;;;;;;;;;;1.10;99.90;;;;;;5006244;28;19917;-62
2022/12/09 12:08:53;;;;;;;;;;;1.10;99.90;;;;;;5007911;28;20121;-64
2022/12/09 12:11:22;;;;;;;;;;;1.20;99.90;;;;;;5025351;28;19979;-62
2022/12/09 12:13:48;;;;;;;;;;;1.20;99.90;;;;;;5006828;28;19996;-64
2022/12/09 12:16:14;;;;;;;;;;;1.10;99.90;;;;;;5009615;28;19917;-65
2022/12/09 12:18:59;;;;;;;;;;;1.10;99.90;;;;;;5006106;28;19910;-65
2022/12/09 12:21:40;;;;;;;;;;;1.20;99.90;;;;;;5008544;28;20399;-64
2022/12/09 12:24:16;;;;;;;;;;;1.10;99.90;;;;;;5003812;28;19963;-64
2022/12/09 12:26:44;;;;;;;;;;;1.10;99.90;;;;;;5005947;28;19917;-64
2022/12/09 12:29:19;;;;;;;;;;;1.20;99.90;;;;;;5010138;28;20292;-63
2022/12/09 12:31:53;;;;;;;;;;;1.10;99.90;;;;;;5005339;28;20003;-63
2022/12/09 12:34:42;;;;;;;;;;;1.10;99.90;;;;;;5006745;28;20008;-63
2022/12/09 12:37:10;;;;;;;;;;;1.10;99.90;;;;;;4993275;28;19940;-61
2022/12/09 12:39:50;;;;;;;;;;;1.10;99.90;;;;;;5001223;28;19963;-61
2022/12/09 12:42:30;;;;;;;;;;;1.10;99.90;;;;;;5003670;28;19988;-65
2022/12/09 12:47:56;;;;;;;;;;;1.10;99.90;;;;;;5008873;28;19917;-60
2022/12/09 12:50:27;;;;;;;;;;;1.10;99.90;;;;;;5001366;28;19964;-60
2022/12/09 12:53:12;;;;;;;;;;;1.10;99.90;;;;;;5002907;28;19922;-64
2022/12/09 12:55:50;;;;;;;;;;;1.10;99.90;;;;;;5004957;28;19913;-62
2022/12/09 12:58:21;;;;;;;;;;;1.10;99.90;;;;;;5006922;28;19951;-63
2022/12/09 13:00:59;;;;;;;;;;;1.10;99.90;;;;;;5010102;28;19910;-62
2022/12/09 13:03:26;;;;;;;;;;;1.10;99.90;;;;;;5002910;28;19964;-63
2022/12/09 13:05:52;;;;;;;;;;;1.10;99.90;;;;;;5008536;28;19913;-63
2022/12/09 13:08:22;;;;;;;;;;;1.00;99.90;;;;;;5007113;28;19964;-62
2022/12/09 13:10:52;;;;;;;;;;;1.00;99.90;;;;;;5006597;28;19918;-64
2022/12/09 13:13:23;;;;;;;;;;;1.00;99.90;;;;;;5006967;28;19925;-64
2022/12/09 13:15:50;;;;;;;;;;;1.00;99.90;;;;;;5008819;28;19925;-59
2022/12/09 13:18:19;;;;;;;;;;;1.00;99.90;;;;;;5005072;28;20281;-63
2022/12/09 13:20:44;;;;;;;;;;;1.00;99.90;;;;;;5007129;28;19956;-60
2022/12/09 13:23:29;;;;;;;;;;;1.00;99.90;;;;;;4998403;28;20347;-63
2022/12/09 13:26:05;;;;;;;;;;;1.00;99.90;;;;;;5008634;28;20032;-61
2022/12/09 13:28:38;;;;;;;;;;;1.00;99.90;;;;;;5007768;28;19940;-63
2022/12/09 13:31:06;;;;;;;;;;;1.00;99.90;;;;;;5006439;28;19916;-60
2022/12/09 13:33:38;;;;;;;;;;;1.00;99.90;;;;;;5006966;28;19963;-64
2022/12/09 13:36:07;;;;;;;;;;;1.00;99.90;;;;;;5005070;28;19918;-64
2022/12/09 13:38:35;;;;;;;;;;;0.90;99.90;;;;;;4999638;28;19914;-63
2022/12/09 13:41:21;;;;;;;;;;;0.90;99.90;;;;;;5007750;28;20253;-62
2022/12/09 13:43:46;;;;;;;;;;;0.90;99.90;;;;;;5006501;28;19942;-64
2022/12/09 13:46:19;;;;;;;;;;;0.90;99.90;;;;;;5003227;28;19910;-62
2022/12/09 13:48:45;;;;;;;;;;;0.90;99.90;;;;;;5002996;28;20371;-64
2022/12/09 13:51:11;;;;;;;;;;;0.90;99.90;;;;;;5009875;28;19971;-61
2022/12/09 13:53:42;;;;;;;;;;;0.80;99.90;;;;;;4998954;28;20048;-63
2022/12/09 13:56:17;;;;;;;;;;;0.80;99.90;;;;;;5012706;28;19909;-63
2022/12/09 13:58:49;;;;;;;;;;;0.80;99.90;;;;;;5005711;28;19921;-64
2022/12/09 14:01:20;;;;;;;;;;;0.80;99.90;;;;;;5008487;28;20307;-63
2022/12/09 14:03:52;;;;;;;;;;;0.70;99.90;;;;;;5005836;28;19914;-61
2022/12/09 14:06:24;;;;;;;;;;;0.70;99.90;;;;;;5008033;28;19914;-64
2022/12/09 14:08:52;;;;;;;;;;;0.70;99.90;;;;;;5006108;28;20036;-63
2022/12/09 14:11:36;;;;;;;;;;;0.70;99.90;;;;;;5008277;28;19920;-64
2022/12/09 14:14:20;;;;;;;;;;;0.70;99.90;;;;;;5005749;28;19921;-66
2022/12/09 14:16:45;;;;;;;;;;;0.60;99.90;;;;;;5012130;28;19914;-69
2022/12/09 14:19:23;;;;;;;;;;;0.70;99.90;;;;;;5009117;28;19914;-64
2022/12/09 14:22:10;;;;;;;;;;;0.60;99.90;;;;;;5011021;28;19917;-64
2022/12/09 14:24:35;;;;;;;;;;;0.60;99.90;;;;;;5006793;28;20291;-64
2022/12/09 14:27:04;;;;;;;;;;;0.60;99.90;;;;;;5008926;28;20238;-64
2022/12/09 14:29:43;;;;;;;;;;;0.60;99.90;;;;;;5001382;28;19941;-64